x

West Sea Otter (46204) Wave Buoy

1:00pm - Fri 31st Jul 2015 All times are PDT. -7 hours from GMT.

  • Sig Wave height 3.6ft
  • Peak Period 16s
  • Wind
    7mph, 9mph gusts
  • Sea Temp 64°f
  • Air Temp 63°f
  • Sea Pressure 1022.7mb
  • West Sea Otter
  • West Sea Otter

More Historic Weather Station data

Upgrade to MSW Pro to gain access to the past 30 days of data for over 8000 Wavebouys and Weather Stations around the globe.

Join Pro

Comparision Forecast

View Surf forecast
   
Fri 07/31 1:00pm 3.5ft 16s 7 9 mph 1022.7mb 64f 63f
12:00pm 3.5ft 15s 7
mph
1022.7mb 63f 62f
10:00am 3.5ft 16s 7
mph
1022.6mb 62f 62f
8:00am 3ft 16s 9
mph
1022.5mb 62f 62f
3:00am 3ft 15s 11 13 mph 1021.7mb 62f 61f
2:00am 3ft 15s 11 13 mph 1021.7mb 62f 61f
1:00am 3ft 16s 11 13 mph 1021.7mb 62f 61f
Thu 07/30 10:00pm 3.5ft 16s 13 18 mph 1021.9mb 62f 62f
8:00pm 3.5ft 15s 13 18 mph 1021.9mb 62f 62f
7:00pm 3.5ft 16s 13 16 mph 1022.2mb 63f 62f
5:00pm 3ft 16s 13 16 mph 1022.9mb 63f 61f
4:00pm 3.5ft 16s 13 16 mph 1023.2mb 63f 61f
3:00pm 3.5ft 16s 11 13 mph 1023.4mb 63f 61f
1:00pm 3.5ft 16s 11 13 mph 1023.4mb 62f 61f
12:00pm 3.5ft 16s 11 13 mph 1023.4mb 62f 61f
11:00am 3.5ft 16s 9 11 mph 1023.2mb 62f 61f
10:00am 4ft 15s 9 11 mph 1023.3mb 62f 60f
9:00am 3.5ft 8s 9 11 mph 1023.2mb 62f 60f
5:00am 4ft 16s 9 11 mph 1023mb 62f 60f
4:00am 4ft 17s 11 13 mph 1023.1mb 62f 60f
3:00am 3.5ft 17s 11 13 mph 1023.1mb 62f 60f
2:00am 3.5ft 16s 11 13 mph 1023.3mb 61f 60f
12:00am 4ft 17s 11 13 mph 1023mb 61f 61f
Wed 07/29 10:00pm 4ft 8s 11
mph
1023.4mb 62f 61f
9:00pm 3.5ft 17s 9 11 mph 1023.4mb 63f 61f
8:00pm 4ft 16s 9 11 mph 1023.8mb 64f 62f
7:00pm 4ft 16s 9
mph
1024.1mb 64f 62f
6:00pm 4.5ft 16s 7 9 mph 1024.6mb 64f 62f
5:00pm 4.5ft 16s 4 7 mph 1025mb 64f 62f
4:00pm 4.5ft 17s 7 9 mph 1025.1mb 64f 62f
3:00pm 4.5ft 17s 7
mph
1025.5mb 64f 62f
2:00pm 4.5ft 16s 2 4 mph 1025.7mb 64f 62f
1:00pm 4.5ft 9s 2 4 mph 1025.3mb 63f 62f
10:00am 5ft 9s 4
mph
1024.9mb 62f 61f
8:00am 5ft 10s 4
mph
1024.9mb 61f 60f
7:00am 5ft 10s 2 4 mph 1024.6mb 61f 60f
6:00am 4.5ft 10s 4 7 mph 1024.6mb 61f 60f
2:00am 5ft 10s 4 7 mph 1024.3mb 61f 60f
1:00am 5.5ft 10s 9 13 mph 1024.4mb 61f 60f
12:00am 6ft 10s 7 9 mph 1024.3mb 61f 60f
Tue 07/28 7:00pm 6ft 9s 13 16 mph 1024.8mb 61f 60f
6:00pm 6ft 10s 13 20 mph 1025mb 62f 60f
5:00pm 7ft 10s 9 11 mph 1025mb 62f 60f
3:00pm 6.5ft 10s 11 13 mph 1025mb 61f 61f
1:00pm 6ft 10s 13
mph
1024.8mb 61f 61f
11:00am 5.5ft 10s 13 16 mph 1024.4mb 61f 60f
10:00am 5.5ft 7s 13 18 mph 1024.4mb 61f 60f
8:00am 6ft 10s 13 18 mph 1024.3mb 61f 60f
7:00am 5ft 10s 16 18 mph 1024.1mb 61f 60f
6:00am 5ft 8s 13 16 mph 1023.9mb 61f 60f
5:00am 5ft 10s 13 16 mph 1024.2mb 61f 59f
4:00am 5ft 10s 11
mph
1024.2mb 62f 60f
12:00am 4.5ft 9s 11 13 mph 1023.9mb 62f 60f
Mon 07/27 10:00pm 4.5ft 9s 11 13 mph 1024.1mb 61f 60f